createdAt,value
2018-10-18T00:00:38.818Z,17.29
2018-10-18T00:01:39.293Z,17.32
2018-10-18T00:02:39.768Z,17.32
2018-10-18T00:03:40.240Z,17.31
2018-10-18T00:04:40.712Z,17.31
2018-10-18T00:05:41.242Z,17.25
2018-10-18T00:06:41.660Z,17.18
2018-10-18T00:07:42.134Z,17.12
2018-10-18T00:08:42.608Z,17.03
2018-10-18T00:09:43.090Z,16.94
2018-10-18T00:10:43.561Z,16.85
2018-10-18T00:11:44.029Z,16.73
2018-10-18T00:12:44.501Z,16.61
2018-10-18T00:13:44.978Z,16.48
2018-10-18T00:14:45.448Z,16.36
2018-10-18T00:15:45.922Z,16.24
2018-10-18T00:16:46.396Z,16.11
2018-10-18T00:17:46.867Z,15.99
2018-10-18T00:18:47.339Z,15.86
2018-10-18T00:19:47.812Z,15.73
2018-10-18T00:20:48.286Z,15.59
2018-10-18T00:21:48.756Z,15.46
2018-10-18T00:22:49.234Z,15.33
2018-10-18T00:23:49.700Z,15.20
2018-10-18T00:24:50.172Z,15.10
2018-10-18T00:25:50.644Z,14.99
2018-10-18T00:26:51.115Z,14.88
2018-10-18T00:27:51.586Z,14.78
2018-10-18T00:28:52.061Z,14.67
2018-10-18T00:29:52.530Z,14.56
2018-10-18T00:30:52.999Z,14.45
2018-10-18T00:31:53.484Z,14.34
2018-10-18T00:32:53.940Z,14.25
2018-10-18T00:33:54.409Z,14.16
2018-10-18T00:34:54.880Z,14.11
2018-10-18T00:35:55.376Z,14.07
2018-10-18T00:36:55.820Z,14.07
2018-10-18T00:37:56.345Z,14.08
2018-10-18T00:38:56.761Z,14.12
2018-10-18T00:39:57.231Z,14.15
2018-10-18T00:40:57.703Z,14.20
2018-10-18T00:41:58.175Z,14.29
2018-10-18T00:42:58.639Z,14.38
2018-10-18T00:43:59.177Z,14.47
2018-10-18T00:44:59.580Z,14.57
2018-10-18T00:46:00.053Z,14.68
2018-10-18T00:47:00.518Z,14.76
2018-10-18T00:48:01.036Z,14.85
2018-10-18T00:49:01.462Z,14.95
2018-10-18T00:50:01.955Z,15.05
2018-10-18T00:51:02.399Z,15.13
2018-10-18T00:52:02.870Z,15.23
2018-10-18T00:53:03.343Z,15.33
2018-10-18T00:54:03.822Z,15.43
2018-10-18T00:55:04.283Z,15.53
2018-10-18T00:56:04.782Z,15.62
2018-10-18T00:57:05.226Z,15.71
2018-10-18T00:58:05.696Z,15.81
2018-10-18T00:59:06.166Z,15.90
2018-10-18T01:00:06.774Z,15.99
2018-10-18T01:01:07.111Z,16.09
2018-10-18T01:02:07.663Z,16.16
2018-10-18T01:03:08.056Z,16.24
2018-10-18T01:04:08.528Z,16.34
2018-10-18T01:05:08.998Z,16.42
2018-10-18T01:06:09.606Z,16.49
2018-10-18T01:07:09.943Z,16.59
2018-10-18T01:08:10.521Z,16.65
2018-10-18T01:09:10.889Z,16.73
2018-10-18T01:10:11.361Z,16.80
2018-10-18T01:11:11.834Z,16.83
2018-10-18T01:12:12.516Z,16.85
2018-10-18T01:13:12.782Z,16.86
2018-10-18T01:14:13.349Z,16.87
2018-10-18T01:15:13.728Z,16.84
2018-10-18T01:16:14.203Z,16.77
2018-10-18T01:17:14.677Z,16.68
2018-10-18T01:18:15.231Z,16.61
2018-10-18T01:19:15.624Z,16.53
2018-10-18T01:20:16.183Z,16.44
2018-10-18T01:21:16.573Z,16.33
2018-10-18T01:22:17.044Z,16.21
2018-10-18T01:23:17.518Z,16.09
2018-10-18T01:24:18.001Z,15.96
2018-10-18T01:25:18.464Z,15.83
2018-10-18T01:26:18.964Z,15.70
2018-10-18T01:27:19.412Z,15.57
2018-10-18T01:28:19.884Z,15.45
2018-10-18T01:29:20.358Z,15.32
2018-10-18T01:30:20.827Z,15.19
2018-10-18T01:31:21.308Z,15.06
2018-10-18T01:32:21.772Z,14.91
2018-10-18T01:33:22.245Z,14.79
2018-10-18T01:34:22.716Z,14.67
2018-10-18T01:35:23.190Z,14.55
2018-10-18T01:36:23.659Z,14.44
2018-10-18T01:37:24.129Z,14.33
2018-10-18T01:38:24.600Z,14.22
2018-10-18T01:39:25.074Z,14.11
2018-10-18T01:40:25.542Z,14.00
2018-10-18T01:41:26.065Z,13.90
2018-10-18T01:42:26.485Z,13.82
2018-10-18T01:43:26.954Z,13.77
2018-10-18T01:44:27.424Z,13.75
2018-10-18T01:45:27.894Z,13.74
2018-10-18T01:46:28.364Z,13.75
2018-10-18T01:47:28.835Z,13.78
2018-10-18T01:48:29.307Z,13.81
2018-10-18T01:49:29.775Z,13.85
2018-10-18T01:50:30.242Z,13.93
2018-10-18T01:51:30.763Z,14.00
2018-10-18T01:52:31.183Z,14.09
2018-10-18T01:53:31.653Z,14.16
2018-10-18T01:54:32.122Z,14.25
2018-10-18T01:55:32.592Z,14.34
2018-10-18T01:56:33.065Z,14.44
2018-10-18T01:57:33.532Z,14.53
2018-10-18T01:58:34.003Z,14.62
2018-10-18T01:59:34.472Z,14.73
2018-10-18T02:00:34.943Z,14.79
2018-10-18T02:01:35.413Z,14.89
2018-10-18T02:02:35.927Z,14.99
2018-10-18T02:03:36.434Z,15.08
2018-10-18T02:04:36.824Z,15.15
2018-10-18T02:05:37.298Z,15.24
2018-10-18T02:06:37.764Z,15.33
2018-10-18T02:07:38.237Z,15.43
2018-10-18T02:08:38.708Z,15.50
2018-10-18T02:09:39.179Z,15.60
2018-10-18T02:10:39.651Z,15.68
2018-10-18T02:11:40.127Z,15.76
2018-10-18T02:12:40.597Z,15.84
2018-10-18T02:13:41.071Z,15.93
2018-10-18T02:14:41.540Z,16.00
2018-10-18T02:15:42.010Z,16.09
2018-10-18T02:16:42.483Z,16.15
2018-10-18T02:17:42.956Z,16.21
2018-10-18T02:18:43.428Z,16.29
2018-10-18T02:19:43.900Z,16.36
2018-10-18T02:20:44.376Z,16.41
2018-10-18T02:21:44.903Z,16.45
2018-10-18T02:22:45.328Z,16.45
2018-10-18T02:23:45.793Z,16.45
2018-10-18T02:24:46.268Z,16.44
2018-10-18T02:25:46.740Z,16.44
2018-10-18T02:26:47.212Z,16.38
2018-10-18T02:27:47.690Z,16.32
2018-10-18T02:28:48.160Z,16.25
2018-10-18T02:29:48.634Z,16.16
2018-10-18T02:30:49.108Z,16.07
2018-10-18T02:31:49.580Z,15.98
2018-10-18T02:32:50.055Z,15.85
2018-10-18T02:33:50.529Z,15.72
2018-10-18T02:34:51.001Z,15.58
2018-10-18T02:35:51.508Z,15.44
2018-10-18T02:36:51.950Z,15.29
2018-10-18T02:37:52.421Z,15.15
2018-10-18T02:38:52.894Z,15.03
2018-10-18T02:39:53.367Z,14.88
2018-10-18T02:40:53.837Z,14.76
2018-10-18T02:41:54.361Z,14.61
2018-10-18T02:42:54.783Z,14.47
2018-10-18T02:43:55.253Z,14.33
2018-10-18T02:44:55.726Z,14.20
2018-10-18T02:45:56.198Z,14.06
2018-10-18T02:46:56.667Z,13.94
2018-10-18T02:47:57.164Z,13.83
2018-10-18T02:48:57.612Z,13.71
2018-10-18T02:49:58.080Z,13.60
2018-10-18T02:50:58.552Z,13.49
2018-10-18T02:51:59.021Z,13.41
2018-10-18T02:52:59.491Z,13.36
2018-10-18T02:54:00.014Z,13.34
2018-10-18T02:55:00.434Z,13.32
2018-10-18T02:56:00.901Z,13.34
2018-10-18T02:57:01.371Z,13.36
2018-10-18T02:58:01.844Z,13.41
2018-10-18T02:59:02.311Z,13.45
2018-10-18T03:00:02.800Z,13.53
2018-10-18T03:01:03.254Z,13.60
2018-10-18T03:02:03.722Z,13.71
2018-10-18T03:03:04.196Z,13.81
2018-10-18T03:04:04.662Z,13.88
2018-10-18T03:05:05.131Z,13.95
2018-10-18T03:06:05.619Z,14.07
2018-10-18T03:07:06.120Z,14.17
2018-10-18T03:08:06.541Z,14.26
2018-10-18T03:09:07.011Z,14.36
2018-10-18T03:10:07.480Z,14.46
2018-10-18T03:11:07.949Z,14.54
2018-10-18T03:12:08.435Z,14.62
2018-10-18T03:13:08.889Z,14.72
2018-10-18T03:14:09.361Z,14.80
2018-10-18T03:15:09.830Z,14.89
2018-10-18T03:16:10.377Z,14.98
2018-10-18T03:17:10.773Z,15.08
2018-10-18T03:18:11.331Z,15.15
2018-10-18T03:19:11.715Z,15.21
2018-10-18T03:20:12.188Z,15.32
2018-10-18T03:21:12.658Z,15.40
2018-10-18T03:22:13.130Z,15.47
2018-10-18T03:23:13.601Z,15.54
2018-10-18T03:24:14.091Z,15.62
2018-10-18T03:25:14.544Z,15.70
2018-10-18T03:26:15.018Z,15.78
2018-10-18T03:27:15.489Z,15.84
2018-10-18T03:28:15.960Z,15.91
2018-10-18T03:29:16.433Z,15.95
2018-10-18T03:30:16.988Z,16.02
2018-10-18T03:31:17.383Z,16.08
2018-10-18T03:32:17.917Z,16.13
2018-10-18T03:33:18.326Z,16.18
2018-10-18T03:34:18.799Z,16.19
2018-10-18T03:35:19.272Z,16.20
2018-10-18T03:36:19.778Z,16.18
2018-10-18T03:37:20.269Z,16.16
2018-10-18T03:38:20.694Z,16.15
2018-10-18T03:39:21.164Z,16.09
2018-10-18T03:40:21.646Z,16.03
2018-10-18T03:41:22.156Z,15.94
2018-10-18T03:42:22.589Z,15.85
2018-10-18T03:43:23.058Z,15.76
2018-10-18T03:44:23.533Z,15.65
2018-10-18T03:45:24.007Z,15.52
2018-10-18T03:46:24.479Z,15.37
2018-10-18T03:47:24.953Z,15.23
2018-10-18T03:48:25.425Z,15.09
2018-10-18T03:49:25.900Z,14.94
2018-10-18T03:50:26.376Z,14.80
2018-10-18T03:51:26.843Z,14.65
2018-10-18T03:52:27.314Z,14.51
2018-10-18T03:53:27.787Z,14.36
2018-10-18T03:54:28.259Z,14.22
2018-10-18T03:55:28.730Z,14.06
2018-10-18T03:56:29.203Z,13.91
2018-10-18T03:57:29.674Z,13.77
2018-10-18T03:58:30.145Z,13.64
2018-10-18T03:59:30.633Z,13.51
2018-10-18T04:00:31.091Z,13.40
2018-10-18T04:01:31.559Z,13.29
2018-10-18T04:02:32.028Z,13.20
2018-10-18T04:03:32.497Z,13.13
2018-10-18T04:04:32.969Z,13.10
2018-10-18T04:05:33.438Z,13.08
2018-10-18T04:06:33.909Z,13.08
2018-10-18T04:07:34.427Z,13.09
2018-10-18T04:08:34.847Z,13.12
2018-10-18T04:09:35.316Z,13.17
2018-10-18T04:10:35.786Z,13.23
2018-10-18T04:11:36.457Z,13.29
2018-10-18T04:12:36.750Z,13.35
2018-10-18T04:13:37.196Z,13.44
2018-10-18T04:14:37.664Z,13.51
2018-10-18T04:15:38.139Z,13.59
2018-10-18T04:16:38.613Z,13.68
2018-10-18T04:17:39.075Z,13.77
2018-10-18T04:18:39.543Z,13.85
2018-10-18T04:19:40.018Z,13.95
2018-10-18T04:20:40.486Z,14.03
2018-10-18T04:21:40.954Z,14.13
2018-10-18T04:22:41.425Z,14.23
2018-10-18T04:23:41.892Z,14.33
2018-10-18T04:24:42.370Z,14.41
2018-10-18T04:25:42.861Z,14.51
2018-10-18T04:26:43.304Z,14.60
2018-10-18T04:27:43.774Z,14.68
2018-10-18T04:28:44.243Z,14.75
2018-10-18T04:29:44.723Z,14.85
2018-10-18T04:30:45.187Z,14.91
2018-10-18T04:31:45.657Z,15.00
2018-10-18T04:32:46.182Z,15.06
2018-10-18T04:33:46.601Z,15.13
2018-10-18T04:34:47.071Z,15.20
2018-10-18T04:35:47.543Z,15.29
2018-10-18T04:36:48.018Z,15.36
2018-10-18T04:37:48.487Z,15.43
2018-10-18T04:38:48.963Z,15.51
2018-10-18T04:39:49.430Z,15.55
2018-10-18T04:40:49.903Z,15.62
2018-10-18T04:41:50.375Z,15.65
2018-10-18T04:42:50.849Z,15.71
2018-10-18T04:43:51.320Z,15.77
2018-10-18T04:44:51.796Z,15.84
2018-10-18T04:45:52.267Z,15.87
2018-10-18T04:46:52.740Z,15.91
2018-10-18T04:47:53.309Z,15.95
2018-10-18T04:48:53.811Z,15.94
2018-10-18T04:49:54.161Z,15.92
2018-10-18T04:50:54.630Z,15.89
2018-10-18T04:51:55.108Z,15.86
2018-10-18T04:52:55.578Z,15.82
2018-10-18T04:53:56.050Z,15.74
2018-10-18T04:54:56.593Z,15.65
2018-10-18T04:55:56.996Z,15.56
2018-10-18T04:56:57.559Z,15.45
2018-10-18T04:57:57.944Z,15.35
2018-10-18T04:58:58.420Z,15.23
2018-10-18T04:59:58.889Z,15.09
2018-10-18T05:00:59.367Z,14.94
2018-10-18T05:01:59.837Z,14.79
2018-10-18T05:03:00.309Z,14.66
2018-10-18T05:04:00.780Z,14.51
2018-10-18T05:05:01.254Z,14.36
2018-10-18T05:06:01.725Z,14.20
2018-10-18T05:07:02.255Z,14.05
2018-10-18T05:08:02.719Z,13.89
2018-10-18T05:09:03.141Z,13.74
2018-10-18T05:10:03.613Z,13.59
2018-10-18T05:11:04.085Z,13.45
2018-10-18T05:12:04.554Z,13.31
2018-10-18T05:13:05.064Z,13.18
2018-10-18T05:14:05.496Z,13.06
2018-10-18T05:15:05.970Z,12.96
2018-10-18T05:16:06.436Z,12.88
2018-10-18T05:17:06.907Z,12.83
2018-10-18T05:18:07.427Z,12.81
2018-10-18T05:19:07.884Z,12.79
2018-10-18T05:20:08.318Z,12.80
2018-10-18T05:21:08.786Z,12.81
2018-10-18T05:22:09.260Z,12.83
2018-10-18T05:23:09.728Z,12.88
2018-10-18T05:24:10.194Z,12.95
2018-10-18T05:25:10.747Z,13.01
2018-10-18T05:26:11.134Z,13.09
2018-10-18T05:27:11.607Z,13.17
2018-10-18T05:28:12.074Z,13.23
2018-10-18T05:29:12.544Z,13.32
2018-10-18T05:30:13.012Z,13.40
2018-10-18T05:31:13.515Z,13.49
2018-10-18T05:32:13.954Z,13.58
2018-10-18T05:33:14.422Z,13.68
2018-10-18T05:34:14.893Z,13.78
2018-10-18T05:35:15.362Z,13.86
2018-10-18T05:36:15.833Z,13.96
2018-10-18T05:37:16.360Z,14.03
2018-10-18T05:38:16.922Z,14.12
2018-10-18T05:39:17.242Z,14.18
2018-10-18T05:40:17.714Z,14.27
2018-10-18T05:41:18.182Z,14.35
2018-10-18T05:42:18.656Z,14.44
2018-10-18T05:43:19.261Z,14.50
2018-10-18T05:44:19.594Z,14.59
2018-10-18T05:45:20.066Z,14.65
2018-10-18T05:46:20.536Z,14.71
2018-10-18T05:47:21.102Z,14.79
2018-10-18T05:48:21.531Z,14.86
2018-10-18T05:49:21.952Z,14.94
2018-10-18T05:50:22.425Z,14.99
2018-10-18T05:51:22.895Z,15.08
2018-10-18T05:52:23.366Z,15.14
2018-10-18T05:53:23.887Z,15.21
2018-10-18T05:54:24.311Z,15.25
2018-10-18T05:55:24.786Z,15.34
2018-10-18T05:56:25.253Z,15.40
2018-10-18T05:57:25.726Z,15.48
2018-10-18T05:58:26.199Z,15.53
2018-10-18T05:59:26.672Z,15.60
2018-10-18T06:00:27.222Z,15.66
2018-10-18T06:01:27.617Z,15.72
2018-10-18T06:02:28.090Z,15.79
2018-10-18T06:03:28.564Z,15.83
2018-10-18T06:04:29.040Z,15.89
2018-10-18T06:05:29.511Z,15.91
2018-10-18T06:06:29.983Z,15.92
2018-10-18T06:07:30.460Z,15.90
2018-10-18T06:08:30.930Z,15.91
2018-10-18T06:09:31.441Z,15.85
2018-10-18T06:10:32.038Z,15.80
2018-10-18T06:11:32.351Z,15.74
2018-10-18T06:12:32.823Z,15.66
2018-10-18T06:13:33.300Z,15.56
2018-10-18T06:14:33.771Z,15.46
2018-10-18T06:15:34.245Z,15.37
2018-10-18T06:16:34.717Z,15.25
2018-10-18T06:17:35.190Z,15.14
2018-10-18T06:18:35.663Z,15.02
2018-10-18T06:19:36.136Z,14.90
2018-10-18T06:20:36.606Z,14.78
2018-10-18T06:21:37.085Z,14.66
2018-10-18T06:22:37.589Z,14.54
2018-10-18T06:23:38.026Z,14.42
2018-10-18T06:24:38.497Z,14.30
2018-10-18T06:25:38.968Z,14.17
2018-10-18T06:26:39.439Z,14.04
2018-10-18T06:27:39.915Z,13.92
2018-10-18T06:28:40.381Z,13.81
2018-10-18T06:29:40.854Z,13.70
2018-10-18T06:30:41.323Z,13.60
2018-10-18T06:31:41.794Z,13.51
2018-10-18T06:32:42.267Z,13.45
2018-10-18T06:33:42.787Z,13.41
2018-10-18T06:34:43.205Z,13.41
2018-10-18T06:35:43.677Z,13.41
2018-10-18T06:36:44.145Z,13.43
2018-10-18T06:37:44.616Z,13.47
2018-10-18T06:38:45.085Z,13.48
2018-10-18T06:39:45.554Z,13.52
2018-10-18T06:40:46.025Z,13.60
2018-10-18T06:41:46.495Z,13.68
2018-10-18T06:42:46.966Z,13.78
2018-10-18T06:43:47.435Z,13.87
2018-10-18T06:44:47.905Z,13.97
2018-10-18T06:45:48.374Z,14.06
2018-10-18T06:46:48.886Z,14.18
2018-10-18T06:47:49.459Z,14.29
2018-10-18T06:48:49.798Z,14.38
2018-10-18T06:49:50.253Z,14.51
2018-10-18T06:50:50.722Z,14.59
2018-10-18T06:51:51.193Z,14.68
2018-10-18T06:52:51.665Z,14.77
2018-10-18T06:53:52.169Z,14.86
2018-10-18T06:54:52.644Z,14.96
2018-10-18T06:55:53.076Z,15.04
2018-10-18T06:56:53.545Z,15.13
2018-10-18T06:57:54.017Z,15.21
2018-10-18T06:58:54.741Z,15.31
2018-10-18T06:59:55.059Z,15.41
2018-10-18T07:00:55.429Z,15.50
2018-10-18T07:01:55.905Z,15.57
2018-10-18T07:02:56.375Z,15.66
2018-10-18T07:03:56.844Z,15.72
2018-10-18T07:04:57.315Z,15.79
2018-10-18T07:05:57.834Z,15.87
2018-10-18T07:06:58.261Z,15.93
2018-10-18T07:07:58.734Z,16.04
2018-10-18T07:08:59.269Z,16.12
2018-10-18T07:09:59.678Z,16.19
2018-10-18T07:11:00.219Z,16.26
2018-10-18T07:12:00.663Z,16.34
2018-10-18T07:13:01.102Z,16.41
2018-10-18T07:14:01.572Z,16.48
2018-10-18T07:15:02.047Z,16.54
2018-10-18T07:16:02.519Z,16.62
2018-10-18T07:17:03.013Z,16.65
2018-10-18T07:18:03.513Z,16.64
2018-10-18T07:19:03.989Z,16.65
2018-10-18T07:20:04.413Z,16.65
2018-10-18T07:21:04.886Z,16.60
2018-10-18T07:22:05.363Z,16.54
2018-10-18T07:23:05.833Z,16.47
2018-10-18T07:24:06.364Z,16.38
2018-10-18T07:25:06.797Z,16.30
2018-10-18T07:26:07.252Z,16.21
2018-10-18T07:27:07.728Z,16.10
2018-10-18T07:28:08.201Z,15.99
2018-10-18T07:29:08.723Z,15.87
2018-10-18T07:30:09.191Z,15.76
2018-10-18T07:31:09.621Z,15.63
2018-10-18T07:32:10.093Z,15.51
2018-10-18T07:33:10.567Z,15.39
2018-10-18T07:34:11.089Z,15.27
2018-10-18T07:35:11.560Z,15.14
2018-10-18T07:36:12.056Z,15.03
2018-10-18T07:37:12.458Z,14.90
2018-10-18T07:38:12.927Z,14.79
2018-10-18T07:39:13.401Z,14.67
2018-10-18T07:40:13.874Z,14.57
2018-10-18T07:41:14.372Z,14.47
2018-10-18T07:42:14.852Z,14.37
2018-10-18T07:43:15.286Z,14.26
2018-10-18T07:44:15.756Z,14.18
2018-10-18T07:45:16.228Z,14.09
2018-10-18T07:46:16.696Z,14.02
2018-10-18T07:47:17.169Z,13.97
2018-10-18T07:48:17.676Z,13.94
2018-10-18T07:49:18.158Z,13.95
2018-10-18T07:50:18.579Z,13.97
2018-10-18T07:51:19.052Z,14.02
2018-10-18T07:52:19.527Z,14.07
2018-10-18T07:53:20.098Z,14.12
2018-10-18T07:54:20.619Z,14.21
2018-10-18T07:55:20.933Z,14.30
2018-10-18T07:56:21.400Z,14.40
2018-10-18T07:57:21.869Z,14.50
2018-10-18T07:58:22.339Z,14.61
2018-10-18T07:59:22.817Z,14.72
2018-10-18T08:00:23.342Z,14.84
2018-10-18T08:01:23.750Z,14.94
2018-10-18T08:02:24.219Z,15.06
2018-10-18T08:03:24.691Z,15.16
2018-10-18T08:04:25.213Z,15.27
2018-10-18T08:05:25.631Z,15.38
2018-10-18T08:06:26.104Z,15.48
2018-10-18T08:07:26.573Z,15.60
2018-10-18T08:08:27.045Z,15.69
2018-10-18T08:09:27.513Z,15.81
2018-10-18T08:10:27.989Z,15.91
2018-10-18T08:11:28.460Z,16.01
2018-10-18T08:12:28.929Z,16.08
2018-10-18T08:13:29.401Z,16.18
2018-10-18T08:14:29.875Z,16.29
2018-10-18T08:15:30.346Z,16.40
2018-10-18T08:16:30.817Z,16.49
2018-10-18T08:17:31.345Z,16.57
2018-10-18T08:18:31.763Z,16.68
2018-10-18T08:19:32.237Z,16.77
2018-10-18T08:20:32.713Z,16.87
2018-10-18T08:21:33.180Z,16.97
2018-10-18T08:22:33.682Z,17.06
2018-10-18T08:23:34.128Z,17.17
2018-10-18T08:24:34.601Z,17.27
2018-10-18T08:25:35.074Z,17.32
2018-10-18T08:26:35.551Z,17.36
2018-10-18T08:27:36.022Z,17.38
2018-10-18T08:28:36.495Z,17.40
2018-10-18T08:29:36.970Z,17.40
2018-10-18T08:30:37.445Z,17.36
2018-10-18T08:31:37.946Z,17.33
2018-10-18T08:32:38.396Z,17.27
2018-10-18T08:33:38.870Z,17.22
2018-10-18T08:34:39.341Z,17.14
2018-10-18T08:35:39.820Z,17.07
2018-10-18T08:36:40.290Z,16.98
2018-10-18T08:37:40.891Z,16.89
2018-10-18T08:38:41.236Z,16.79
2018-10-18T08:39:41.710Z,16.69
2018-10-18T08:40:42.387Z,16.58
2018-10-18T08:41:42.656Z,16.48
2018-10-18T08:42:43.131Z,16.38
2018-10-18T08:43:43.636Z,16.30
2018-10-18T08:44:44.077Z,16.21
2018-10-18T08:45:44.567Z,16.12
2018-10-18T08:46:45.023Z,16.03
2018-10-18T08:47:45.494Z,15.94
2018-10-18T08:48:45.969Z,15.86
2018-10-18T08:49:46.504Z,15.77
2018-10-18T08:50:46.957Z,15.69
2018-10-18T08:51:47.385Z,15.62
2018-10-18T08:52:47.858Z,15.54
2018-10-18T08:53:48.331Z,15.47
2018-10-18T08:54:48.800Z,15.40
2018-10-18T08:55:49.272Z,15.34
2018-10-18T08:56:49.742Z,15.27
2018-10-18T08:57:50.213Z,15.21
2018-10-18T08:58:50.684Z,15.15
2018-10-18T08:59:51.209Z,15.10
2018-10-18T09:00:51.654Z,15.07
2018-10-18T09:01:52.160Z,15.05
2018-10-18T09:02:52.620Z,15.06
2018-10-18T09:03:53.082Z,15.08
2018-10-18T09:04:53.815Z,15.11
2018-10-18T09:05:54.007Z,15.17
2018-10-18T09:06:54.496Z,15.25
2018-10-18T09:07:54.978Z,15.34
2018-10-18T09:08:55.520Z,15.43
2018-10-18T09:09:55.993Z,15.53
2018-10-18T09:10:56.745Z,15.65
2018-10-18T09:11:56.855Z,15.77
2018-10-18T09:12:57.362Z,15.90
2018-10-18T09:13:57.781Z,16.04
2018-10-18T09:14:58.257Z,16.17
2018-10-18T09:15:58.781Z,16.30
2018-10-18T09:16:59.190Z,16.44
2018-10-18T09:17:59.683Z,16.59
2018-10-18T09:19:00.199Z,16.75
2018-10-18T09:20:00.606Z,16.90
2018-10-18T09:21:01.266Z,17.04
2018-10-18T09:22:01.583Z,17.17
2018-10-18T09:23:02.014Z,17.30
2018-10-18T09:24:02.669Z,17.43
2018-10-18T09:25:03.039Z,17.56
2018-10-18T09:26:03.439Z,17.68
2018-10-18T09:27:03.914Z,17.79
2018-10-18T09:28:04.372Z,17.91
2018-10-18T09:29:04.865Z,18.03
2018-10-18T09:30:05.317Z,18.15
2018-10-18T09:31:05.799Z,18.26
2018-10-18T09:32:06.319Z,18.37
2018-10-18T09:33:06.719Z,18.46
2018-10-18T09:34:07.229Z,18.54
2018-10-18T09:35:07.693Z,18.59
2018-10-18T09:36:08.346Z,18.63
2018-10-18T09:37:09.063Z,18.65
2018-10-18T09:38:09.365Z,18.65
2018-10-18T09:39:09.792Z,18.64
2018-10-18T09:40:10.132Z,18.63
2018-10-18T09:41:10.536Z,18.61
2018-10-18T09:42:10.996Z,18.57
2018-10-18T09:43:11.514Z,18.53
2018-10-18T09:44:12.005Z,18.48
2018-10-18T09:45:12.446Z,18.42
2018-10-18T09:46:13.093Z,18.36
2018-10-18T09:47:13.373Z,18.30
2018-10-18T09:48:14.139Z,18.21
2018-10-18T09:49:14.619Z,18.14
2018-10-18T09:50:14.836Z,18.07
2018-10-18T09:51:15.282Z,17.99
2018-10-18T09:52:15.738Z,17.91
2018-10-18T09:53:16.204Z,17.82
2018-10-18T09:54:16.724Z,17.75
2018-10-18T09:55:17.297Z,17.68
2018-10-18T09:56:17.713Z,17.60
2018-10-18T09:57:18.117Z,17.53
2018-10-18T09:58:18.625Z,17.45
2018-10-18T09:59:19.113Z,17.39
2018-10-18T10:00:19.532Z,17.33
2018-10-18T10:01:20.036Z,17.28
2018-10-18T10:02:20.510Z,17.22
2018-10-18T10:03:20.964Z,17.17
2018-10-18T10:04:21.508Z,17.11
2018-10-18T10:05:21.953Z,17.05
2018-10-18T10:06:22.363Z,17.00
2018-10-18T10:07:23.109Z,16.95
2018-10-18T10:08:23.294Z,16.90
2018-10-18T10:09:23.765Z,16.84
2018-10-18T10:10:24.322Z,16.80
2018-10-18T10:11:24.778Z,16.75
2018-10-18T10:12:25.227Z,16.71
2018-10-18T10:13:25.793Z,16.65
2018-10-18T10:14:26.339Z,16.61
2018-10-18T10:15:26.672Z,16.57
2018-10-18T10:16:27.097Z,16.54
2018-10-18T10:17:27.602Z,16.50
2018-10-18T10:19:28.525Z,16.45
2018-10-18T10:20:29.072Z,16.43
2018-10-18T10:21:29.478Z,16.43
2018-10-18T10:22:29.912Z,16.43
2018-10-18T10:23:30.405Z,16.45
2018-10-18T10:24:30.910Z,16.49
2018-10-18T10:25:31.389Z,16.55
2018-10-18T10:26:31.829Z,16.62
2018-10-18T10:27:32.652Z,16.72
2018-10-18T10:28:32.756Z,16.83
2018-10-18T10:29:33.251Z,16.94
2018-10-18T10:30:33.673Z,17.06
2018-10-18T10:31:34.160Z,17.19
2018-10-18T10:32:34.605Z,17.33
2018-10-18T10:33:35.184Z,17.47
2018-10-18T10:34:35.574Z,17.62
2018-10-18T10:35:36.092Z,17.78
2018-10-18T10:36:36.521Z,17.94
2018-10-18T10:37:36.982Z,18.10
2018-10-18T10:38:37.529Z,18.26
2018-10-18T10:39:37.896Z,18.41
2018-10-18T10:40:38.370Z,18.57
2018-10-18T10:41:38.843Z,18.71
2018-10-18T10:42:39.320Z,18.87
2018-10-18T10:43:39.788Z,19.01
2018-10-18T10:44:40.302Z,19.16
2018-10-18T10:45:40.842Z,19.31
2018-10-18T10:46:41.207Z,19.46
2018-10-18T10:47:41.680Z,19.59
2018-10-18T10:48:42.156Z,19.70
2018-10-18T10:49:42.629Z,19.82
2018-10-18T10:50:43.106Z,19.89
2018-10-18T10:51:43.579Z,19.94
2018-10-18T10:52:44.051Z,19.98
2018-10-18T10:53:44.528Z,20.01
2018-10-18T10:54:45.003Z,20.03
2018-10-18T10:55:45.528Z,20.03
2018-10-18T10:56:45.952Z,20.03
2018-10-18T10:57:46.428Z,20.03
2018-10-18T10:58:46.967Z,20.02
2018-10-18T10:59:47.377Z,19.99
2018-10-18T11:00:47.851Z,19.96
2018-10-18T11:01:48.328Z,19.92
2018-10-18T11:02:48.803Z,19.88
2018-10-18T11:03:49.277Z,19.83
2018-10-18T11:04:49.751Z,19.76
2018-10-18T11:05:50.228Z,19.71
2018-10-18T11:06:50.704Z,19.66
2018-10-18T11:07:51.176Z,19.60
2018-10-18T11:08:51.703Z,19.55
2018-10-18T11:09:52.126Z,19.48
2018-10-18T11:10:52.604Z,19.43
2018-10-18T11:11:53.118Z,19.38
2018-10-18T11:12:53.550Z,19.33
2018-10-18T11:13:54.036Z,19.28
2018-10-18T11:14:54.523Z,19.22
2018-10-18T11:15:54.971Z,19.17
2018-10-18T11:16:55.492Z,19.12
2018-10-18T11:17:55.963Z,19.07
2018-10-18T11:18:56.395Z,19.01
2018-10-18T11:19:56.876Z,18.97
2018-10-18T11:20:57.347Z,18.92
2018-10-18T11:21:57.816Z,18.86
2018-10-18T11:22:58.291Z,18.82
2018-10-18T11:23:58.786Z,18.78
2018-10-18T11:24:59.238Z,18.74
2018-10-18T11:25:59.739Z,18.70
2018-10-18T11:27:00.236Z,18.66
2018-10-18T11:28:00.655Z,18.63
2018-10-18T11:29:01.130Z,18.60
2018-10-18T11:30:01.661Z,18.58
2018-10-18T11:31:03.642Z,18.54
2018-10-18T11:32:02.630Z,18.51
2018-10-18T11:33:03.083Z,18.48
2018-10-18T11:34:03.493Z,18.45
2018-10-18T11:35:03.965Z,18.42
2018-10-18T11:36:04.448Z,18.40
2018-10-18T11:37:04.914Z,18.38
2018-10-18T11:38:05.390Z,18.37
2018-10-18T11:39:05.857Z,18.35
2018-10-18T11:40:06.328Z,18.35
2018-10-18T11:41:07.002Z,18.34
2018-10-18T11:42:07.331Z,18.33
2018-10-18T11:43:07.745Z,18.33
2018-10-18T11:44:08.247Z,18.33
2018-10-18T11:45:08.687Z,18.31
2018-10-18T11:46:09.161Z,18.29
2018-10-18T11:47:09.630Z,18.26
2018-10-18T11:48:10.193Z,18.24
2018-10-18T11:49:10.575Z,18.22
2018-10-18T11:50:11.116Z,18.20
2018-10-18T11:51:11.572Z,18.18
2018-10-18T11:52:12.047Z,18.16
2018-10-18T11:53:12.462Z,18.14
2018-10-18T11:54:13.020Z,18.12
2018-10-18T11:55:13.403Z,18.09
2018-10-18T11:56:13.914Z,18.07
2018-10-18T11:57:14.348Z,18.05
2018-10-18T11:58:14.823Z,18.02
2018-10-18T11:59:15.295Z,18.01
2018-10-18T12:00:15.760Z,18.01
2018-10-18T12:01:16.302Z,18.01
2018-10-18T12:02:16.772Z,18.01
2018-10-18T12:03:17.175Z,18.00
2018-10-18T12:04:17.646Z,17.99
2018-10-18T12:05:18.201Z,17.98
2018-10-18T12:06:18.588Z,17.96
2018-10-18T12:07:19.064Z,17.95
2018-10-18T12:08:19.528Z,17.95
2018-10-18T12:09:20.000Z,17.95
2018-10-18T12:10:20.470Z,17.95
2018-10-18T12:11:20.942Z,17.95
2018-10-18T12:12:21.413Z,17.94
2018-10-18T12:13:21.884Z,17.95
2018-10-18T12:14:22.357Z,17.95
2018-10-18T12:15:22.826Z,17.95
2018-10-18T12:16:23.299Z,17.95
2018-10-18T12:17:23.767Z,17.96
2018-10-18T12:18:24.239Z,17.96
2018-10-18T12:19:24.707Z,17.97
2018-10-18T12:20:25.181Z,17.99
2018-10-18T12:21:25.650Z,18.03
2018-10-18T12:22:26.127Z,18.06
2018-10-18T12:23:26.592Z,18.11
2018-10-18T12:24:27.063Z,18.18
2018-10-18T12:25:27.534Z,18.24
2018-10-18T12:26:28.004Z,18.34
2018-10-18T12:27:28.475Z,18.44
2018-10-18T12:28:28.946Z,18.56
2018-10-18T12:29:29.419Z,18.68
2018-10-18T12:30:29.889Z,18.83
2018-10-18T12:31:30.360Z,18.96
2018-10-18T12:32:30.832Z,19.10
2018-10-18T12:33:31.304Z,19.26
2018-10-18T12:34:31.777Z,19.42
2018-10-18T12:35:32.248Z,19.58
2018-10-18T12:36:32.718Z,19.74
2018-10-18T12:37:33.195Z,19.92
2018-10-18T12:38:33.665Z,20.09
2018-10-18T12:39:34.196Z,20.25
2018-10-18T12:40:34.716Z,20.40
2018-10-18T12:41:35.156Z,20.53
2018-10-18T12:42:35.560Z,20.68
2018-10-18T12:43:36.038Z,20.79
2018-10-18T12:44:36.507Z,20.89
2018-10-18T12:45:36.983Z,20.97
2018-10-18T12:46:37.456Z,21.02
2018-10-18T12:47:37.932Z,21.04
2018-10-18T12:48:38.494Z,21.06
2018-10-18T12:49:38.883Z,21.09
2018-10-18T12:50:39.357Z,21.11
2018-10-18T12:51:39.831Z,21.13
2018-10-18T12:52:40.308Z,21.13
2018-10-18T12:53:40.984Z,21.14
2018-10-18T12:54:41.356Z,21.14
2018-10-18T12:55:41.734Z,21.12
2018-10-18T12:56:42.215Z,21.10
2018-10-18T12:57:42.685Z,21.06
2018-10-18T12:58:43.162Z,21.03
2018-10-18T12:59:43.640Z,20.98